world map with AHU marked

AHU - Airport

This information may not be accurate or current and is not valid for navigation or flight planning. No warranty of fitness for any purpose is made or implied.

flag of Morocco

Donate via PayPal

Additional information is available on the NEW Great Circle Mapper

Location
City:  Al Hoceima, Morocco
Name:Cherif al Idrissi Airport
ICAO / IATA:GMTA / AHU

Details
Type:Airport (Aerodrome, Airfield)
Use:Public/Civil
Latitude:35°10'38"N (35.177103)
Longitude:3°50'22"W (-3.839524)
Datum:WGS 1984
Elevation:95 ft (29 m)
Runways:1
Longest:8202 × 148 ft (2500 × 45 m)

Time
Timezone:UTC+0 (DST+3)
Local Time:

Weather
METAR:GMTA  162300Z 20002KT 9999 FEW020 SCT026 10/04 Q1019 NOSIG
TAF:GMTA  162300Z 1700/1806 VRB02KT 9999 FEW020

Related Locations
Nearby:
Farthest:NZOX: 12354 mi / 19882 km
Okiwi Station, AUK, NZ

Find:

   beyond  
but within

Other Information
Maps:
Sources:

  


 


Great Circle Mapper   Great Circle Mapper
Great Circle Mapper FAQ   Great Circle Mapper FAQ
  Karl's Home Page
KLSē   KLSē Home
   GC on Facebook
Airlines of the World   Airlines of the World
Donate via PayPal


Copyright © 2004-2019, Karl L. Swartz. All rights reserved.
All trademarks mentioned herein belong to their respective owners.

Please see credits for attribution and copyright information.

Karl Swartz <karl@kls2.com>
  Powered by FreeBSD
Valid HTML 4.01!
Labeled with ICRA
hCard Microformat
Geo Microformat